sensor_id;sensor_type;location;lat;lon;timestamp;pressure;altitude;pressure_sealevel;temperature;humidity
20019;BME280;10170;42.502;26.526;2023-04-20T00:00:01;99183.47;;;10.59;100.00
20019;BME280;10170;42.502;26.526;2023-04-20T00:02:36;99177.75;;;10.63;100.00
20019;BME280;10170;42.502;26.526;2023-04-20T00:05:05;99171.47;;;10.50;100.00
20019;BME280;10170;42.502;26.526;2023-04-20T00:07:32;99174.13;;;10.50;100.00
20019;BME280;10170;42.502;26.526;2023-04-20T00:09:59;99171.44;;;10.57;100.00
20019;BME280;10170;42.502;26.526;2023-04-20T00:12:26;99167.75;;;10.58;100.00
20019;BME280;10170;42.502;26.526;2023-04-20T00:14:53;99162.06;;;10.54;100.00
20019;BME280;10170;42.502;26.526;2023-04-20T00:17:20;99168.50;;;10.40;100.00
20019;BME280;10170;42.502;26.526;2023-04-20T00:19:47;99165.06;;;10.09;100.00
20019;BME280;10170;42.502;26.526;2023-04-20T00:22:13;99165.09;;;9.96;100.00
20019;BME280;10170;42.502;26.526;2023-04-20T00:24:40;99159.41;;;9.92;100.00
20019;BME280;10170;42.502;26.526;2023-04-20T00:27:07;99162.38;;;9.71;100.00
20019;BME280;10170;42.502;26.526;2023-04-20T00:29:33;99149.16;;;9.58;100.00
20019;BME280;10170;42.502;26.526;2023-04-20T00:32:00;99157.25;;;9.76;100.00
20019;BME280;10170;42.502;26.526;2023-04-20T00:34:27;99162.78;;;9.68;100.00
20019;BME280;10170;42.502;26.526;2023-04-20T00:36:53;99158.69;;;9.79;100.00
20019;BME280;10170;42.502;26.526;2023-04-20T00:39:20;99155.63;;;10.06;100.00
20019;BME280;10170;42.502;26.526;2023-04-20T00:41:47;99151.88;;;10.27;100.00
20019;BME280;10170;42.502;26.526;2023-04-20T00:44:13;99152.03;;;10.32;100.00
20019;BME280;10170;42.502;26.526;2023-04-20T00:46:40;99146.13;;;9.92;100.00
20019;BME280;10170;42.502;26.526;2023-04-20T00:49:07;99143.53;;;9.79;100.00
20019;BME280;10170;42.502;26.526;2023-04-20T00:51:35;99141.44;;;9.88;100.00
20019;BME280;10170;42.502;26.526;2023-04-20T00:54:02;99142.44;;;9.93;100.00
20019;BME280;10170;42.502;26.526;2023-04-20T00:56:29;99140.13;;;10.03;100.00
20019;BME280;10170;42.502;26.526;2023-04-20T00:58:56;99146.66;;;10.07;100.00
20019;BME280;10170;42.502;26.526;2023-04-20T01:01:23;99128.53;;;9.98;100.00
20019;BME280;10170;42.502;26.526;2023-04-20T01:03:50;99132.25;;;9.90;100.00
20019;BME280;10170;42.502;26.526;2023-04-20T01:06:17;99146.94;;;9.93;100.00
20019;BME280;10170;42.502;26.526;2023-04-20T01:08:45;99144.47;;;9.98;100.00
20019;BME280;10170;42.502;26.526;2023-04-20T01:11:12;99145.47;;;9.97;100.00
20019;BME280;10170;42.502;26.526;2023-04-20T01:13:39;99142.25;;;9.95;100.00
20019;BME280;10170;42.502;26.526;2023-04-20T01:16:06;99130.53;;;10.02;100.00
20019;BME280;10170;42.502;26.526;2023-04-20T01:18:44;99132.75;;;10.12;100.00
20019;BME280;10170;42.502;26.526;2023-04-20T01:21:13;99127.22;;;10.13;100.00
20019;BME280;10170;42.502;26.526;2023-04-20T01:23:40;99141.75;;;10.11;100.00
20019;BME280;10170;42.502;26.526;2023-04-20T01:26:08;99140.38;;;9.95;100.00
20019;BME280;10170;42.502;26.526;2023-04-20T01:28:36;99140.72;;;9.74;100.00
20019;BME280;10170;42.502;26.526;2023-04-20T01:31:04;99135.75;;;9.84;100.00
20019;BME280;10170;42.502;26.526;2023-04-20T01:33:31;99144.41;;;9.73;100.00
20019;BME280;10170;42.502;26.526;2023-04-20T01:35:58;99129.75;;;9.64;100.00
20019;BME280;10170;42.502;26.526;2023-04-20T01:38:25;99137.63;;;9.77;100.00
20019;BME280;10170;42.502;26.526;2023-04-20T01:40:53;99134.25;;;9.64;100.00
20019;BME280;10170;42.502;26.526;2023-04-20T01:43:20;99149.16;;;9.58;100.00
20019;BME280;10170;42.502;26.526;2023-04-20T01:45:48;99140.38;;;9.57;100.00
20019;BME280;10170;42.502;26.526;2023-04-20T01:48:15;99123.28;;;9.47;100.00
20019;BME280;10170;42.502;26.526;2023-04-20T01:50:41;99137.13;;;9.62;100.00
20019;BME280;10170;42.502;26.526;2023-04-20T01:53:08;99118.16;;;9.58;100.00
20019;BME280;10170;42.502;26.526;2023-04-20T01:55:35;99122.97;;;9.75;100.00
20019;BME280;10170;42.502;26.526;2023-04-20T01:58:01;99122.91;;;9.81;100.00
20019;BME280;10170;42.502;26.526;2023-04-20T02:00:29;99120.94;;;9.70;100.00
20019;BME280;10170;42.502;26.526;2023-04-20T02:02:56;99113.94;;;9.76;100.00
20019;BME280;10170;42.502;26.526;2023-04-20T02:05:23;99115.84;;;10.00;100.00
20019;BME280;10170;42.502;26.526;2023-04-20T02:07:49;99125.44;;;10.01;100.00
20019;BME280;10170;42.502;26.526;2023-04-20T02:10:17;99113.31;;;9.80;100.00
20019;BME280;10170;42.502;26.526;2023-04-20T02:12:44;99122.31;;;9.79;100.00
20019;BME280;10170;42.502;26.526;2023-04-20T02:15:10;99109.06;;;9.73;100.00
20019;BME280;10170;42.502;26.526;2023-04-20T02:17:37;99108.66;;;9.76;100.00
20019;BME280;10170;42.502;26.526;2023-04-20T02:20:04;99108.66;;;9.76;100.00
20019;BME280;10170;42.502;26.526;2023-04-20T02:22:38;99100.56;;;9.64;100.00
20019;BME280;10170;42.502;26.526;2023-04-20T02:25:05;99112.34;;;9.75;100.00
20019;BME280;10170;42.502;26.526;2023-04-20T02:27:32;99115.97;;;9.80;100.00
20019;BME280;10170;42.502;26.526;2023-04-20T02:29:59;99119.75;;;9.66;100.00
20019;BME280;10170;42.502;26.526;2023-04-20T02:32:26;99104.66;;;9.60;100.00
20019;BME280;10170;42.502;26.526;2023-04-20T02:34:53;99122.31;;;9.79;100.00
20019;BME280;10170;42.502;26.526;2023-04-20T02:37:20;99116.19;;;9.79;100.00
20019;BME280;10170;42.502;26.526;2023-04-20T02:39:46;99109.03;;;9.79;100.00
20019;BME280;10170;42.502;26.526;2023-04-20T02:42:13;99111.13;;;9.71;100.00
20019;BME280;10170;42.502;26.526;2023-04-20T02:44:40;99113.13;;;9.75;100.00
20019;BME280;10170;42.502;26.526;2023-04-20T02:47:06;99109.31;;;9.65;100.00
20019;BME280;10170;42.502;26.526;2023-04-20T02:49:33;99107.69;;;9.64;100.00
20019;BME280;10170;42.502;26.526;2023-04-20T02:52:00;99107.69;;;9.64;100.00
20019;BME280;10170;42.502;26.526;2023-04-20T02:54:27;99114.84;;;9.63;100.00
20019;BME280;10170;42.502;26.526;2023-04-20T02:56:53;99118.09;;;9.65;100.00
20019;BME280;10170;42.502;26.526;2023-04-20T02:59:23;99111.19;;;9.64;100.00
20019;BME280;10170;42.502;26.526;2023-04-20T03:01:50;99113.06;;;9.57;100.00
20019;BME280;10170;42.502;26.526;2023-04-20T03:04:17;99092.13;;;9.36;100.00
20019;BME280;10170;42.502;26.526;2023-04-20T03:06:45;99102.47;;;9.50;100.00
20019;BME280;10170;42.502;26.526;2023-04-20T03:09:11;99106.97;;;9.43;100.00
20019;BME280;10170;42.502;26.526;2023-04-20T03:11:38;99113.72;;;9.39;100.00
20019;BME280;10170;42.502;26.526;2023-04-20T03:14:05;99104.38;;;9.37;100.00
20019;BME280;10170;42.502;26.526;2023-04-20T03:16:32;99098.50;;;9.28;100.00
20019;BME280;10170;42.502;26.526;2023-04-20T03:18:59;99111.06;;;9.39;100.00
20019;BME280;10170;42.502;26.526;2023-04-20T03:21:25;99098.03;;;9.38;100.00
20019;BME280;10170;42.502;26.526;2023-04-20T03:23:52;99106.97;;;9.43;100.00
20019;BME280;10170;42.502;26.526;2023-04-20T03:26:19;99090.91;;;9.38;100.00
20019;BME280;10170;42.502;26.526;2023-04-20T03:28:45;99104.31;;;9.50;100.00
20019;BME280;10170;42.502;26.526;2023-04-20T03:31:12;99113.84;;;9.57;100.00
20019;BME280;10170;42.502;26.526;2023-04-20T03:33:39;99111.38;;;9.63;100.00
20019;BME280;10170;42.502;26.526;2023-04-20T03:36:06;99112.19;;;9.63;100.00
20019;BME280;10170;42.502;26.526;2023-04-20T03:38:32;99118.75;;;9.61;100.00
20019;BME280;10170;42.502;26.526;2023-04-20T03:40:59;99120.31;;;9.68;100.00
20019;BME280;10170;42.502;26.526;2023-04-20T03:43:26;99125.47;;;9.63;100.00
20019;BME280;10170;42.502;26.526;2023-04-20T03:45:54;99127.13;;;9.57;100.00
20019;BME280;10170;42.502;26.526;2023-04-20T03:48:20;99133.84;;;9.60;100.00
20019;BME280;10170;42.502;26.526;2023-04-20T03:50:47;99135.56;;;9.48;100.00
20019;BME280;10170;42.502;26.526;2023-04-20T03:53:14;99127.56;;;9.54;100.00
20019;BME280;10170;42.502;26.526;2023-04-20T03:55:41;99124.06;;;9.61;100.00
20019;BME280;10170;42.502;26.526;2023-04-20T03:58:07;99125.19;;;9.78;100.00
20019;BME280;10170;42.502;26.526;2023-04-20T04:00:34;99136.00;;;9.76;100.00
20019;BME280;10170;42.502;26.526;2023-04-20T04:03:01;99126.34;;;9.88;100.00
20019;BME280;10170;42.502;26.526;2023-04-20T04:05:28;99132.03;;;9.92;100.00
20019;BME280;10170;42.502;26.526;2023-04-20T04:07:55;99128.75;;;9.96;100.00
20019;BME280;10170;42.502;26.526;2023-04-20T04:10:21;99133.56;;;10.06;100.00
20019;BME280;10170;42.502;26.526;2023-04-20T04:12:48;99128.25;;;10.06;100.00
20019;BME280;10170;42.502;26.526;2023-04-20T04:15:15;99132.69;;;10.18;100.00
20019;BME280;10170;42.502;26.526;2023-04-20T04:17:41;99136.53;;;10.29;100.00
20019;BME280;10170;42.502;26.526;2023-04-20T04:20:09;99140.72;;;10.36;100.00
20019;BME280;10170;42.502;26.526;2023-04-20T04:22:37;99139.66;;;10.44;100.00
20019;BME280;10170;42.502;26.526;2023-04-20T04:25:04;99142.69;;;10.47;100.00
20019;BME280;10170;42.502;26.526;2023-04-20T04:27:31;99150.66;;;10.47;100.00
20019;BME280;10170;42.502;26.526;2023-04-20T04:30:00;99146.16;;;10.48;100.00
20019;BME280;10170;42.502;26.526;2023-04-20T04:32:29;99152.63;;;10.58;100.00
20019;BME280;10170;42.502;26.526;2023-04-20T04:34:55;99157.63;;;10.67;100.00
20019;BME280;10170;42.502;26.526;2023-04-20T04:37:23;99164.97;;;10.71;100.00
20019;BME280;10170;42.502;26.526;2023-04-20T04:39:49;99173.28;;;10.56;100.00
20019;BME280;10170;42.502;26.526;2023-04-20T04:42:16;99164.31;;;10.51;100.00
20019;BME280;10170;42.502;26.526;2023-04-20T04:44:43;99163.66;;;10.00;100.00
20019;BME280;10170;42.502;26.526;2023-04-20T04:47:10;99165.38;;;9.81;100.00
20019;BME280;10170;42.502;26.526;2023-04-20T04:49:37;99156.91;;;9.59;100.00
20019;BME280;10170;42.502;26.526;2023-04-20T04:52:07;99174.28;;;9.55;100.00
20019;BME280;10170;42.502;26.526;2023-04-20T04:54:34;99167.78;;;9.45;100.00
20019;BME280;10170;42.502;26.526;2023-04-20T04:57:01;99174.75;;;9.46;100.00
20019;BME280;10170;42.502;26.526;2023-04-20T04:59:28;99169.19;;;9.54;100.00
20019;BME280;10170;42.502;26.526;2023-04-20T05:01:54;99163.56;;;9.75;100.00
20019;BME280;10170;42.502;26.526;2023-04-20T05:04:21;99147.47;;;9.70;100.00
20019;BME280;10170;42.502;26.526;2023-04-20T05:06:48;99158.31;;;9.69;100.00
20019;BME280;10170;42.502;26.526;2023-04-20T05:09:15;99166.88;;;9.71;100.00
20019;BME280;10170;42.502;26.526;2023-04-20T05:11:42;99160.75;;;9.70;100.00
20019;BME280;10170;42.502;26.526;2023-04-20T05:14:09;99154.44;;;9.71;100.00
20019;BME280;10170;42.502;26.526;2023-04-20T05:16:36;99156.75;;;9.92;100.00
20019;BME280;10170;42.502;26.526;2023-04-20T05:19:02;99164.00;;;9.72;100.00
20019;BME280;10170;42.502;26.526;2023-04-20T05:21:29;99155.19;;;9.78;100.00
20019;BME280;10170;42.502;26.526;2023-04-20T05:23:56;99159.06;;;9.82;100.00
20019;BME280;10170;42.502;26.526;2023-04-20T05:26:23;99163.91;;;9.92;100.00
20019;BME280;10170;42.502;26.526;2023-04-20T05:28:49;99163.81;;;10.11;100.00
20019;BME280;10170;42.502;26.526;2023-04-20T05:31:16;99165.53;;;10.30;100.00
20019;BME280;10170;42.502;26.526;2023-04-20T05:33:43;99165.22;;;10.14;100.00
20019;BME280;10170;42.502;26.526;2023-04-20T05:36:10;99161.78;;;10.07;100.00
20019;BME280;10170;42.502;26.526;2023-04-20T05:38:37;99161.66;;;10.26;100.00
20019;BME280;10170;42.502;26.526;2023-04-20T05:41:04;99158.19;;;10.26;100.00
20019;BME280;10170;42.502;26.526;2023-04-20T05:43:30;99145.06;;;10.31;100.00
20019;BME280;10170;42.502;26.526;2023-04-20T05:45:57;99160.28;;;10.48;100.00
20019;BME280;10170;42.502;26.526;2023-04-20T05:48:24;99148.59;;;10.49;100.00
20019;BME280;10170;42.502;26.526;2023-04-20T05:50:55;99154.44;;;10.58;100.00
20019;BME280;10170;42.502;26.526;2023-04-20T05:53:22;99149.19;;;10.76;100.00
20019;BME280;10170;42.502;26.526;2023-04-20T05:55:49;99146.75;;;10.75;100.00
20019;BME280;10170;42.502;26.526;2023-04-20T05:58:15;99153.19;;;10.85;100.00
20019;BME280;10170;42.502;26.526;2023-04-20T06:00:42;99156.31;;;11.00;100.00
20019;BME280;10170;42.502;26.526;2023-04-20T06:03:09;99157.78;;;10.96;100.00
20019;BME280;10170;42.502;26.526;2023-04-20T06:05:36;99154.31;;;11.14;100.00
20019;BME280;10170;42.502;26.526;2023-04-20T06:08:03;99164.47;;;11.23;100.00
20019;BME280;10170;42.502;26.526;2023-04-20T06:10:30;99164.88;;;11.20;100.00
20019;BME280;10170;42.502;26.526;2023-04-20T06:12:59;99167.63;;;11.50;100.00
20019;BME280;10170;42.502;26.526;2023-04-20T06:15:26;99161.09;;;11.82;100.00
20019;BME280;10170;42.502;26.526;2023-04-20T06:17:53;99178.06;;;11.70;100.00
20019;BME280;10170;42.502;26.526;2023-04-20T06:20:20;99184.38;;;11.87;100.00
20019;BME280;10170;42.502;26.526;2023-04-20T06:22:47;99185.38;;;12.04;100.00
20019;BME280;10170;42.502;26.526;2023-04-20T06:25:14;99193.84;;;12.01;100.00
20019;BME280;10170;42.502;26.526;2023-04-20T06:27:41;99198.38;;;12.12;100.00
20019;BME280;10170;42.502;26.526;2023-04-20T06:30:08;99194.47;;;12.14;100.00
20019;BME280;10170;42.502;26.526;2023-04-20T06:32:35;99205.53;;;12.00;100.00
20019;BME280;10170;42.502;26.526;2023-04-20T06:35:05;99209.38;;;12.04;100.00
20019;BME280;10170;42.502;26.526;2023-04-20T06:37:34;99189.69;;;11.87;100.00
20019;BME280;10170;42.502;26.526;2023-04-20T06:40:02;99215.47;;;11.75;100.00
20019;BME280;10170;42.502;26.526;2023-04-20T06:42:34;99201.78;;;11.71;100.00
20019;BME280;10170;42.502;26.526;2023-04-20T06:45:01;99202.25;;;11.98;100.00
20019;BME280;10170;42.502;26.526;2023-04-20T06:47:27;99202.25;;;11.98;100.00
20019;BME280;10170;42.502;26.526;2023-04-20T06:49:58;99193.03;;;12.00;100.00
20019;BME280;10170;42.502;26.526;2023-04-20T06:52:25;99194.78;;;12.06;100.00
20019;BME280;10170;42.502;26.526;2023-04-20T06:54:52;99198.44;;;11.94;100.00
20019;BME280;10170;42.502;26.526;2023-04-20T06:57:19;99193.47;;;11.97;100.00
20019;BME280;10170;42.502;26.526;2023-04-20T06:59:46;99194.72;;;11.95;100.00
20019;BME280;10170;42.502;26.526;2023-04-20T07:02:12;99198.00;;;12.08;100.00
20019;BME280;10170;42.502;26.526;2023-04-20T07:04:39;99184.25;;;12.11;100.00
20019;BME280;10170;42.502;26.526;2023-04-20T07:07:06;99199.84;;;12.37;100.00
20019;BME280;10170;42.502;26.526;2023-04-20T07:09:33;99205.81;;;12.62;100.00
20019;BME280;10170;42.502;26.526;2023-04-20T07:12:00;99211.50;;;12.66;100.00
20019;BME280;10170;42.502;26.526;2023-04-20T07:14:26;99208.41;;;12.92;100.00
20019;BME280;10170;42.502;26.526;2023-04-20T07:16:53;99206.78;;;12.91;100.00
20019;BME280;10170;42.502;26.526;2023-04-20T07:19:20;99214.91;;;12.85;100.00
20019;BME280;10170;42.502;26.526;2023-04-20T07:21:47;99208.88;;;13.01;100.00
20019;BME280;10170;42.502;26.526;2023-04-20T07:24:14;99209.13;;;13.11;100.00
20019;BME280;10170;42.502;26.526;2023-04-20T07:26:40;99212.81;;;12.87;100.00
20019;BME280;10170;42.502;26.526;2023-04-20T07:29:07;99212.94;;;12.92;100.00
20019;BME280;10170;42.502;26.526;2023-04-20T07:31:34;99210.81;;;12.82;100.00
20019;BME280;10170;42.502;26.526;2023-04-20T07:34:01;99212.94;;;12.92;100.00
20019;BME280;10170;42.502;26.526;2023-04-20T07:36:28;99206.13;;;13.07;100.00
20019;BME280;10170;42.502;26.526;2023-04-20T07:38:55;99219.22;;;13.09;100.00
20019;BME280;10170;42.502;26.526;2023-04-20T07:41:22;99214.09;;;12.96;100.00
20019;BME280;10170;42.502;26.526;2023-04-20T07:43:49;99210.19;;;13.10;100.00
20019;BME280;10170;42.502;26.526;2023-04-20T07:46:20;99211.69;;;13.17;100.00
20019;BME280;10170;42.502;26.526;2023-04-20T07:48:47;99201.81;;;13.18;100.00
20019;BME280;10170;42.502;26.526;2023-04-20T07:51:14;99207.75;;;13.31;100.00
20019;BME280;10170;42.502;26.526;2023-04-20T07:53:41;99201.00;;;13.40;100.00
20019;BME280;10170;42.502;26.526;2023-04-20T07:56:08;99210.84;;;13.40;100.00
20019;BME280;10170;42.502;26.526;2023-04-20T07:58:34;99207.94;;;13.53;100.00
20019;BME280;10170;42.502;26.526;2023-04-20T08:01:03;99210.28;;;13.49;100.00
20019;BME280;10170;42.502;26.526;2023-04-20T08:03:30;99218.88;;;13.51;100.00
20019;BME280;10170;42.502;26.526;2023-04-20T08:05:59;99229.25;;;13.76;100.00
20019;BME280;10170;42.502;26.526;2023-04-20T08:08:26;99224.31;;;13.96;100.00
20019;BME280;10170;42.502;26.526;2023-04-20T08:10:55;99230.66;;;14.07;100.00
20019;BME280;10170;42.502;26.526;2023-04-20T08:13:22;99227.09;;;14.29;100.00
20019;BME280;10170;42.502;26.526;2023-04-20T08:15:49;99242.78;;;14.26;100.00
20019;BME280;10170;42.502;26.526;2023-04-20T08:18:15;99233.94;;;14.25;100.00
20019;BME280;10170;42.502;26.526;2023-04-20T08:20:43;99235.50;;;14.49;100.00
20019;BME280;10170;42.502;26.526;2023-04-20T08:23:11;99220.47;;;14.48;100.00
20019;BME280;10170;42.502;26.526;2023-04-20T08:25:39;99234.72;;;14.65;100.00
20019;BME280;10170;42.502;26.526;2023-04-20T08:28:08;99238.47;;;14.64;100.00
20019;BME280;10170;42.502;26.526;2023-04-20T08:30:49;99242.09;;;14.58;100.00
20019;BME280;10170;42.502;26.526;2023-04-20T08:33:16;99242.91;;;14.75;100.00
20019;BME280;10170;42.502;26.526;2023-04-20T08:35:43;99246.41;;;15.09;100.00
20019;BME280;10170;42.502;26.526;2023-04-20T08:38:09;99251.41;;;15.39;100.00
20019;BME280;10170;42.502;26.526;2023-04-20T08:40:43;99251.38;;;15.72;100.00
20019;BME280;10170;42.502;26.526;2023-04-20T08:43:10;99252.00;;;16.01;100.00
20019;BME280;10170;42.502;26.526;2023-04-20T08:45:37;99264.91;;;16.30;100.00
20019;BME280;10170;42.502;26.526;2023-04-20T08:48:06;99271.72;;;16.38;100.00
20019;BME280;10170;42.502;26.526;2023-04-20T08:50:39;99277.56;;;16.35;100.00
20019;BME280;10170;42.502;26.526;2023-04-20T08:53:06;99274.16;;;16.18;100.00
20019;BME280;10170;42.502;26.526;2023-04-20T08:55:35;99260.94;;;16.54;100.00
20019;BME280;10170;42.502;26.526;2023-04-20T08:58:02;99264.06;;;17.05;100.00
20019;BME280;10170;42.502;26.526;2023-04-20T09:00:28;99261.69;;;17.50;100.00
20019;BME280;10170;42.502;26.526;2023-04-20T09:02:56;99268.47;;;18.14;100.00
20019;BME280;10170;42.502;26.526;2023-04-20T09:05:29;99289.78;;;18.36;100.00
20019;BME280;10170;42.502;26.526;2023-04-20T09:07:58;99300.19;;;18.89;100.00
20019;BME280;10170;42.502;26.526;2023-04-20T09:10:37;99298.09;;;18.19;98.97
20019;BME280;10170;42.502;26.526;2023-04-20T09:13:05;99286.44;;;19.06;98.23
20019;BME280;10170;42.502;26.526;2023-04-20T09:15:32;99303.69;;;19.70;88.21
20019;BME280;10170;42.502;26.526;2023-04-20T09:17:58;99291.66;;;20.06;82.03
20019;BME280;10170;42.502;26.526;2023-04-20T09:20:36;99291.75;;;19.91;76.18
20019;BME280;10170;42.502;26.526;2023-04-20T09:25:38;99296.38;;;19.65;66.78
20019;BME280;10170;42.502;26.526;2023-04-20T09:28:06;99292.34;;;18.62;69.66
20019;BME280;10170;42.502;26.526;2023-04-20T09:30:46;99289.94;;;18.81;75.87
20019;BME280;10170;42.502;26.526;2023-04-20T09:33:15;99285.34;;;18.81;82.29
20019;BME280;10170;42.502;26.526;2023-04-20T09:35:44;99274.78;;;18.45;75.19
20019;BME280;10170;42.502;26.526;2023-04-20T09:38:14;99261.84;;;18.47;75.29
20019;BME280;10170;42.502;26.526;2023-04-20T09:40:41;99282.16;;;18.95;74.87
20019;BME280;10170;42.502;26.526;2023-04-20T09:43:09;99279.44;;;19.15;71.87
20019;BME280;10170;42.502;26.526;2023-04-20T09:45:41;99274.03;;;19.30;71.67
20019;BME280;10170;42.502;26.526;2023-04-20T09:48:08;99272.97;;;19.46;73.67
20019;BME280;10170;42.502;26.526;2023-04-20T09:50:36;99270.50;;;19.69;73.10
20019;BME280;10170;42.502;26.526;2023-04-20T09:53:15;99267.72;;;19.94;74.96
20019;BME280;10170;42.502;26.526;2023-04-20T09:55:47;99272.13;;;19.65;72.01
20019;BME280;10170;42.502;26.526;2023-04-20T09:58:19;99269.59;;;19.94;71.17
20019;BME280;10170;42.502;26.526;2023-04-20T10:00:47;99268.06;;;19.58;69.49
20019;BME280;10170;42.502;26.526;2023-04-20T10:03:17;99261.03;;;19.67;69.37
20019;BME280;10170;42.502;26.526;2023-04-20T10:05:45;99256.75;;;19.66;68.53
20019;BME280;10170;42.502;26.526;2023-04-20T10:08:11;99261.03;;;20.41;65.35
20019;BME280;10170;42.502;26.526;2023-04-20T10:10:46;99254.94;;;20.10;64.27
20019;BME280;10170;42.502;26.526;2023-04-20T10:13:14;99259.97;;;19.73;72.41
20019;BME280;10170;42.502;26.526;2023-04-20T10:15:41;99246.78;;;19.56;73.84
20019;BME280;10170;42.502;26.526;2023-04-20T10:18:18;99246.28;;;19.39;78.65
20019;BME280;10170;42.502;26.526;2023-04-20T10:20:46;99249.47;;;19.56;71.26
20019;BME280;10170;42.502;26.526;2023-04-20T10:23:13;99240.25;;;20.41;66.16
20019;BME280;10170;42.502;26.526;2023-04-20T10:25:41;99244.09;;;20.74;63.13
20019;BME280;10170;42.502;26.526;2023-04-20T10:28:11;99235.13;;;21.12;58.83
20019;BME280;10170;42.502;26.526;2023-04-20T10:30:49;99240.66;;;20.92;64.20
20019;BME280;10170;42.502;26.526;2023-04-20T10:33:17;99240.19;;;20.85;65.20
20019;BME280;10170;42.502;26.526;2023-04-20T10:35:52;99240.84;;;20.72;68.94
20019;BME280;10170;42.502;26.526;2023-04-20T10:38:32;99237.00;;;21.17;68.19
20019;BME280;10170;42.502;26.526;2023-04-20T10:41:09;99237.72;;;21.74;63.42
20019;BME280;10170;42.502;26.526;2023-04-20T10:43:36;99227.00;;;21.41;63.74
20019;BME280;10170;42.502;26.526;2023-04-20T10:46:15;99228.81;;;21.22;65.14
20019;BME280;10170;42.502;26.526;2023-04-20T10:48:56;99227.69;;;20.99;61.96
20019;BME280;10170;42.502;26.526;2023-04-20T10:51:23;99178.22;;;20.60;61.16
20019;BME280;10170;42.502;26.526;2023-04-20T10:54:00;99230.63;;;20.25;64.11
20019;BME280;10170;42.502;26.526;2023-04-20T10:56:40;99234.56;;;20.43;66.23
20019;BME280;10170;42.502;26.526;2023-04-20T10:59:13;99229.56;;;20.21;66.88
20019;BME280;10170;42.502;26.526;2023-04-20T11:01:40;99237.91;;;20.63;61.88
20019;BME280;10170;42.502;26.526;2023-04-20T11:04:09;99226.59;;;20.61;64.38
20019;BME280;10170;42.502;26.526;2023-04-20T11:06:40;99234.28;;;20.78;63.42
20019;BME280;10170;42.502;26.526;2023-04-20T11:11:45;99221.88;;;20.77;67.65
20019;BME280;10170;42.502;26.526;2023-04-20T11:14:12;99217.56;;;21.90;61.10
20019;BME280;10170;42.502;26.526;2023-04-20T11:16:39;99226.78;;;22.27;60.30
20019;BME280;10170;42.502;26.526;2023-04-20T11:19:31;99224.91;;;22.27;61.76
20019;BME280;10170;42.502;26.526;2023-04-20T11:21:59;99215.75;;;21.81;63.55
20019;BME280;10170;42.502;26.526;2023-04-20T11:24:28;99221.94;;;21.86;62.04
20019;BME280;10170;42.502;26.526;2023-04-20T11:26:55;99225.47;;;21.82;57.51
20019;BME280;10170;42.502;26.526;2023-04-20T11:29:27;99217.00;;;21.41;59.57
20019;BME280;10170;42.502;26.526;2023-04-20T11:31:54;99216.19;;;21.41;58.26
20019;BME280;10170;42.502;26.526;2023-04-20T11:34:22;99218.50;;;20.61;63.90
20019;BME280;10170;42.502;26.526;2023-04-20T11:36:49;99214.69;;;20.24;61.46
20019;BME280;10170;42.502;26.526;2023-04-20T11:39:23;99206.25;;;19.76;64.57
20019;BME280;10170;42.502;26.526;2023-04-20T11:41:50;99203.44;;;19.08;65.23
20019;BME280;10170;42.502;26.526;2023-04-20T11:44:22;99211.53;;;18.92;65.64
20019;BME280;10170;42.502;26.526;2023-04-20T11:46:49;99207.22;;;18.61;67.55
20019;BME280;10170;42.502;26.526;2023-04-20T11:49:16;99209.84;;;18.26;68.41
20019;BME280;10170;42.502;26.526;2023-04-20T11:51:44;99207.66;;;18.23;69.85
20019;BME280;10170;42.502;26.526;2023-04-20T11:54:12;99204.88;;;17.93;71.23
20019;BME280;10170;42.502;26.526;2023-04-20T11:56:40;99182.59;;;18.08;71.37
20019;BME280;10170;42.502;26.526;2023-04-20T11:59:10;99199.84;;;18.12;72.76
20019;BME280;10170;42.502;26.526;2023-04-20T12:01:39;99206.53;;;17.99;74.89
20019;BME280;10170;42.502;26.526;2023-04-20T12:04:06;99203.63;;;18.21;71.93
20019;BME280;10170;42.502;26.526;2023-04-20T12:06:33;99209.09;;;18.46;73.13
20019;BME280;10170;42.502;26.526;2023-04-20T12:09:00;99207.50;;;18.50;74.06
20019;BME280;10170;42.502;26.526;2023-04-20T12:11:27;99206.88;;;18.38;81.03
20019;BME280;10170;42.502;26.526;2023-04-20T12:13:54;99212.59;;;18.51;80.15
20019;BME280;10170;42.502;26.526;2023-04-20T12:16:21;99203.41;;;18.37;79.94
20019;BME280;10170;42.502;26.526;2023-04-20T12:18:48;99213.66;;;18.45;90.47
20019;BME280;10170;42.502;26.526;2023-04-20T12:21:14;99207.16;;;18.26;93.81
20019;BME280;10170;42.502;26.526;2023-04-20T12:23:41;99194.19;;;18.23;96.52
20019;BME280;10170;42.502;26.526;2023-04-20T12:26:10;99206.34;;;18.26;96.02
20019;BME280;10170;42.502;26.526;2023-04-20T12:28:36;99199.06;;;18.31;92.34
20019;BME280;10170;42.502;26.526;2023-04-20T12:31:03;99203.38;;;18.27;91.23
20019;BME280;10170;42.502;26.526;2023-04-20T12:33:30;99198.69;;;17.92;92.32
20019;BME280;10170;42.502;26.526;2023-04-20T12:35:57;99189.22;;;17.70;100.00
20019;BME280;10170;42.502;26.526;2023-04-20T12:38:24;99190.41;;;18.14;94.93
20019;BME280;10170;42.502;26.526;2023-04-20T12:40:51;99191.53;;;18.28;89.90
20019;BME280;10170;42.502;26.526;2023-04-20T12:43:17;99192.31;;;18.14;96.59
20019;BME280;10170;42.502;26.526;2023-04-20T12:45:44;99191.53;;;18.38;92.33
20019;BME280;10170;42.502;26.526;2023-04-20T12:48:11;99192.09;;;18.40;92.85
20019;BME280;10170;42.502;26.526;2023-04-20T12:50:38;99183.75;;;18.32;93.83
20019;BME280;10170;42.502;26.526;2023-04-20T12:53:04;99175.00;;;17.84;98.98